sensor_id;sensor_type;location;lat;lon;timestamp;P1;durP1;ratioP1;P2;durP2;ratioP2
49376;SDS011;35253;34.688;33.040;2023-07-24T00:01:44;10.07;;;3.20;;
49376;SDS011;35253;34.688;33.040;2023-07-24T00:04:10;7.20;;;3.40;;
49376;SDS011;35253;34.688;33.040;2023-07-24T00:06:35;6.70;;;2.42;;
49376;SDS011;35253;34.688;33.040;2023-07-24T00:09:01;4.55;;;2.58;;
49376;SDS011;35253;34.688;33.040;2023-07-24T00:11:26;9.68;;;4.00;;
49376;SDS011;35253;34.688;33.040;2023-07-24T00:13:52;8.82;;;2.83;;
49376;SDS011;35253;34.688;33.040;2023-07-24T00:16:18;6.95;;;2.33;;
49376;SDS011;35253;34.688;33.040;2023-07-24T00:18:43;8.02;;;2.88;;
49376;SDS011;35253;34.688;33.040;2023-07-24T00:21:09;11.25;;;2.83;;
49376;SDS011;35253;34.688;33.040;2023-07-24T00:23:36;7.28;;;3.05;;
49376;SDS011;35253;34.688;33.040;2023-07-24T00:26:01;6.05;;;2.80;;
49376;SDS011;35253;34.688;33.040;2023-07-24T00:28:27;4.95;;;3.05;;
49376;SDS011;35253;34.688;33.040;2023-07-24T00:30:52;11.90;;;3.08;;
49376;SDS011;35253;34.688;33.040;2023-07-24T00:33:18;5.93;;;2.95;;
49376;SDS011;35253;34.688;33.040;2023-07-24T00:35:44;10.73;;;3.33;;
49376;SDS011;35253;34.688;33.040;2023-07-24T00:38:09;10.35;;;2.67;;
49376;SDS011;35253;34.688;33.040;2023-07-24T00:40:35;8.35;;;2.55;;
49376;SDS011;35253;34.688;33.040;2023-07-24T00:43:00;10.20;;;2.53;;
49376;SDS011;35253;34.688;33.040;2023-07-24T00:45:26;8.70;;;2.65;;
49376;SDS011;35253;34.688;33.040;2023-07-24T00:47:52;13.55;;;4.28;;
49376;SDS011;35253;34.688;33.040;2023-07-24T00:50:18;8.05;;;2.65;;
49376;SDS011;35253;34.688;33.040;2023-07-24T00:52:44;6.35;;;2.50;;
49376;SDS011;35253;34.688;33.040;2023-07-24T00:55:10;5.47;;;2.67;;
49376;SDS011;35253;34.688;33.040;2023-07-24T00:57:37;12.13;;;2.83;;
49376;SDS011;35253;34.688;33.040;2023-07-24T01:00:03;6.80;;;2.40;;
49376;SDS011;35253;34.688;33.040;2023-07-24T01:02:30;7.15;;;3.22;;
49376;SDS011;35253;34.688;33.040;2023-07-24T01:04:56;9.85;;;3.33;;
49376;SDS011;35253;34.688;33.040;2023-07-24T01:07:21;9.68;;;2.58;;
49376;SDS011;35253;34.688;33.040;2023-07-24T01:09:47;7.32;;;3.15;;
49376;SDS011;35253;34.688;33.040;2023-07-24T01:12:23;9.77;;;2.75;;
49376;SDS011;35253;34.688;33.040;2023-07-24T01:15:06;8.40;;;4.05;;
49376;SDS011;35253;34.688;33.040;2023-07-24T01:17:39;11.68;;;4.00;;
49376;SDS011;35253;34.688;33.040;2023-07-24T01:20:08;6.72;;;2.92;;
49376;SDS011;35253;34.688;33.040;2023-07-24T01:25:36;9.50;;;3.30;;
49376;SDS011;35253;34.688;33.040;2023-07-24T01:28:18;11.18;;;3.08;;
49376;SDS011;35253;34.688;33.040;2023-07-24T01:30:44;6.80;;;2.55;;
49376;SDS011;35253;34.688;33.040;2023-07-24T01:33:10;9.57;;;2.58;;
49376;SDS011;35253;34.688;33.040;2023-07-24T01:35:35;12.02;;;3.47;;
49376;SDS011;35253;34.688;33.040;2023-07-24T01:38:02;12.65;;;3.53;;
49376;SDS011;35253;34.688;33.040;2023-07-24T01:40:29;8.65;;;3.28;;
49376;SDS011;35253;34.688;33.040;2023-07-24T01:42:55;11.00;;;3.95;;
49376;SDS011;35253;34.688;33.040;2023-07-24T01:45:21;8.90;;;2.97;;
49376;SDS011;35253;34.688;33.040;2023-07-24T01:47:46;7.95;;;3.05;;
49376;SDS011;35253;34.688;33.040;2023-07-24T01:50:12;9.70;;;3.00;;
49376;SDS011;35253;34.688;33.040;2023-07-24T01:52:38;6.03;;;2.97;;
49376;SDS011;35253;34.688;33.040;2023-07-24T01:55:03;11.02;;;2.72;;
49376;SDS011;35253;34.688;33.040;2023-07-24T01:57:29;20.58;;;4.50;;
49376;SDS011;35253;34.688;33.040;2023-07-24T01:59:55;7.75;;;3.38;;
49376;SDS011;35253;34.688;33.040;2023-07-24T02:02:20;10.60;;;3.70;;
49376;SDS011;35253;34.688;33.040;2023-07-24T02:04:46;8.77;;;3.05;;
49376;SDS011;35253;34.688;33.040;2023-07-24T02:07:12;9.63;;;3.58;;
49376;SDS011;35253;34.688;33.040;2023-07-24T02:09:37;8.45;;;3.47;;
49376;SDS011;35253;34.688;33.040;2023-07-24T02:12:03;10.65;;;3.22;;
49376;SDS011;35253;34.688;33.040;2023-07-24T02:14:29;11.25;;;4.78;;
49376;SDS011;35253;34.688;33.040;2023-07-24T02:16:55;6.15;;;2.97;;
49376;SDS011;35253;34.688;33.040;2023-07-24T02:19:20;8.10;;;3.42;;
49376;SDS011;35253;34.688;33.040;2023-07-24T02:21:46;4.03;;;2.58;;
49376;SDS011;35253;34.688;33.040;2023-07-24T02:24:11;9.85;;;3.22;;
49376;SDS011;35253;34.688;33.040;2023-07-24T02:26:37;6.93;;;3.67;;
49376;SDS011;35253;34.688;33.040;2023-07-24T02:29:03;10.43;;;3.30;;
49376;SDS011;35253;34.688;33.040;2023-07-24T02:31:28;5.15;;;2.88;;
49376;SDS011;35253;34.688;33.040;2023-07-24T02:33:54;11.05;;;4.28;;
49376;SDS011;35253;34.688;33.040;2023-07-24T02:36:19;6.78;;;3.47;;
49376;SDS011;35253;34.688;33.040;2023-07-24T02:38:45;9.82;;;2.53;;
49376;SDS011;35253;34.688;33.040;2023-07-24T02:41:10;4.70;;;2.50;;
49376;SDS011;35253;34.688;33.040;2023-07-24T02:43:36;10.73;;;3.60;;
49376;SDS011;35253;34.688;33.040;2023-07-24T02:46:02;20.27;;;4.57;;
49376;SDS011;35253;34.688;33.040;2023-07-24T02:48:28;28.77;;;5.47;;
49376;SDS011;35253;34.688;33.040;2023-07-24T02:50:54;56.90;;;11.57;;
49376;SDS011;35253;34.688;33.040;2023-07-24T02:53:20;83.90;;;14.50;;
49376;SDS011;35253;34.688;33.040;2023-07-24T02:55:45;41.47;;;8.80;;
49376;SDS011;35253;34.688;33.040;2023-07-24T02:58:12;19.33;;;6.03;;
49376;SDS011;35253;34.688;33.040;2023-07-24T03:00:38;16.55;;;4.18;;
49376;SDS011;35253;34.688;33.040;2023-07-24T03:03:04;19.45;;;4.43;;
49376;SDS011;35253;34.688;33.040;2023-07-24T03:05:30;10.15;;;3.72;;
49376;SDS011;35253;34.688;33.040;2023-07-24T03:07:56;14.88;;;5.15;;
49376;SDS011;35253;34.688;33.040;2023-07-24T03:10:22;18.10;;;5.00;;
49376;SDS011;35253;34.688;33.040;2023-07-24T03:12:48;12.80;;;3.67;;
49376;SDS011;35253;34.688;33.040;2023-07-24T03:15:14;24.02;;;4.82;;
49376;SDS011;35253;34.688;33.040;2023-07-24T03:17:39;19.38;;;4.50;;
49376;SDS011;35253;34.688;33.040;2023-07-24T03:20:23;13.50;;;4.60;;
49376;SDS011;35253;34.688;33.040;2023-07-24T03:22:49;19.33;;;5.53;;
49376;SDS011;35253;34.688;33.040;2023-07-24T03:25:14;9.73;;;3.40;;
49376;SDS011;35253;34.688;33.040;2023-07-24T03:27:40;19.77;;;6.03;;
49376;SDS011;35253;34.688;33.040;2023-07-24T03:30:06;12.43;;;5.45;;
49376;SDS011;35253;34.688;33.040;2023-07-24T03:32:32;9.68;;;3.67;;
49376;SDS011;35253;34.688;33.040;2023-07-24T03:34:57;10.75;;;3.78;;
49376;SDS011;35253;34.688;33.040;2023-07-24T03:37:23;12.50;;;3.88;;
49376;SDS011;35253;34.688;33.040;2023-07-24T03:39:49;11.35;;;3.75;;
49376;SDS011;35253;34.688;33.040;2023-07-24T03:42:24;15.52;;;3.40;;
49376;SDS011;35253;34.688;33.040;2023-07-24T03:44:51;7.68;;;2.92;;
49376;SDS011;35253;34.688;33.040;2023-07-24T03:47:17;9.55;;;3.13;;
49376;SDS011;35253;34.688;33.040;2023-07-24T03:49:42;16.70;;;3.97;;
49376;SDS011;35253;34.688;33.040;2023-07-24T03:52:08;22.92;;;6.03;;
49376;SDS011;35253;34.688;33.040;2023-07-24T03:54:33;21.40;;;5.90;;
49376;SDS011;35253;34.688;33.040;2023-07-24T03:56:59;12.38;;;5.18;;
49376;SDS011;35253;34.688;33.040;2023-07-24T03:59:25;12.85;;;5.80;;
49376;SDS011;35253;34.688;33.040;2023-07-24T04:01:50;14.15;;;4.63;;
49376;SDS011;35253;34.688;33.040;2023-07-24T04:04:16;12.70;;;3.58;;
49376;SDS011;35253;34.688;33.040;2023-07-24T04:06:41;13.43;;;3.72;;
49376;SDS011;35253;34.688;33.040;2023-07-24T04:09:07;17.70;;;5.47;;
49376;SDS011;35253;34.688;33.040;2023-07-24T04:11:33;10.55;;;4.88;;
49376;SDS011;35253;34.688;33.040;2023-07-24T04:13:58;29.48;;;4.47;;
49376;SDS011;35253;34.688;33.040;2023-07-24T04:16:24;11.95;;;3.63;;
49376;SDS011;35253;34.688;33.040;2023-07-24T04:18:49;13.60;;;4.13;;
49376;SDS011;35253;34.688;33.040;2023-07-24T04:21:15;10.63;;;3.33;;
49376;SDS011;35253;34.688;33.040;2023-07-24T04:23:40;20.45;;;7.78;;
49376;SDS011;35253;34.688;33.040;2023-07-24T04:26:06;35.03;;;18.83;;
49376;SDS011;35253;34.688;33.040;2023-07-24T04:28:32;44.92;;;11.38;;
49376;SDS011;35253;34.688;33.040;2023-07-24T04:31:00;111.53;;;16.67;;
49376;SDS011;35253;34.688;33.040;2023-07-24T04:33:26;99.05;;;13.55;;
49376;SDS011;35253;34.688;33.040;2023-07-24T04:35:53;51.65;;;8.48;;
49376;SDS011;35253;34.688;33.040;2023-07-24T04:38:20;44.63;;;6.65;;
49376;SDS011;35253;34.688;33.040;2023-07-24T04:40:46;44.72;;;7.63;;
49376;SDS011;35253;34.688;33.040;2023-07-24T04:43:11;33.85;;;5.75;;
49376;SDS011;35253;34.688;33.040;2023-07-24T04:45:37;14.85;;;3.47;;
49376;SDS011;35253;34.688;33.040;2023-07-24T04:48:03;17.98;;;4.53;;
49376;SDS011;35253;34.688;33.040;2023-07-24T04:50:29;11.57;;;3.97;;
49376;SDS011;35253;34.688;33.040;2023-07-24T04:52:55;12.32;;;3.97;;
49376;SDS011;35253;34.688;33.040;2023-07-24T04:55:20;22.48;;;4.80;;
49376;SDS011;35253;34.688;33.040;2023-07-24T04:57:47;27.25;;;4.72;;
49376;SDS011;35253;34.688;33.040;2023-07-24T05:00:12;38.35;;;5.22;;
49376;SDS011;35253;34.688;33.040;2023-07-24T05:02:39;26.23;;;5.70;;
49376;SDS011;35253;34.688;33.040;2023-07-24T05:05:04;22.20;;;6.85;;
49376;SDS011;35253;34.688;33.040;2023-07-24T05:07:30;46.22;;;7.55;;
49376;SDS011;35253;34.688;33.040;2023-07-24T05:09:56;62.28;;;10.00;;
49376;SDS011;35253;34.688;33.040;2023-07-24T05:12:22;64.05;;;9.48;;
49376;SDS011;35253;34.688;33.040;2023-07-24T05:14:48;9.75;;;3.47;;
49376;SDS011;35253;34.688;33.040;2023-07-24T05:17:13;21.73;;;3.65;;
49376;SDS011;35253;34.688;33.040;2023-07-24T05:19:39;21.73;;;5.18;;
49376;SDS011;35253;34.688;33.040;2023-07-24T05:22:05;24.60;;;5.55;;
49376;SDS011;35253;34.688;33.040;2023-07-24T05:24:30;24.73;;;5.47;;
49376;SDS011;35253;34.688;33.040;2023-07-24T05:26:56;18.98;;;4.65;;
49376;SDS011;35253;34.688;33.040;2023-07-24T05:29:22;18.80;;;5.65;;
49376;SDS011;35253;34.688;33.040;2023-07-24T05:31:47;16.73;;;3.65;;
49376;SDS011;35253;34.688;33.040;2023-07-24T05:34:13;40.38;;;7.10;;
49376;SDS011;35253;34.688;33.040;2023-07-24T05:36:40;19.85;;;3.85;;
49376;SDS011;35253;34.688;33.040;2023-07-24T05:39:05;12.15;;;3.65;;
49376;SDS011;35253;34.688;33.040;2023-07-24T05:41:31;20.23;;;5.38;;
49376;SDS011;35253;34.688;33.040;2023-07-24T05:43:57;18.73;;;3.80;;
49376;SDS011;35253;34.688;33.040;2023-07-24T05:46:22;11.00;;;3.40;;
49376;SDS011;35253;34.688;33.040;2023-07-24T05:48:48;14.55;;;3.80;;
49376;SDS011;35253;34.688;33.040;2023-07-24T05:51:13;12.45;;;4.38;;
49376;SDS011;35253;34.688;33.040;2023-07-24T05:53:39;8.23;;;4.28;;
49376;SDS011;35253;34.688;33.040;2023-07-24T05:56:05;10.70;;;3.50;;
49376;SDS011;35253;34.688;33.040;2023-07-24T05:58:30;6.00;;;4.28;;
49376;SDS011;35253;34.688;33.040;2023-07-24T06:00:56;15.73;;;4.18;;
49376;SDS011;35253;34.688;33.040;2023-07-24T06:03:22;15.15;;;5.22;;
49376;SDS011;35253;34.688;33.040;2023-07-24T06:05:55;7.45;;;4.07;;
49376;SDS011;35253;34.688;33.040;2023-07-24T06:08:21;14.70;;;3.55;;
49376;SDS011;35253;34.688;33.040;2023-07-24T06:10:48;17.70;;;5.10;;
49376;SDS011;35253;34.688;33.040;2023-07-24T06:13:15;10.70;;;3.30;;
49376;SDS011;35253;34.688;33.040;2023-07-24T06:15:41;9.68;;;3.97;;
49376;SDS011;35253;34.688;33.040;2023-07-24T06:18:07;15.77;;;3.72;;
49376;SDS011;35253;34.688;33.040;2023-07-24T06:20:33;9.63;;;3.85;;
49376;SDS011;35253;34.688;33.040;2023-07-24T06:22:59;9.82;;;3.20;;
49376;SDS011;35253;34.688;33.040;2023-07-24T06:25:24;9.52;;;4.38;;
49376;SDS011;35253;34.688;33.040;2023-07-24T06:27:50;10.05;;;3.95;;
49376;SDS011;35253;34.688;33.040;2023-07-24T06:30:16;13.23;;;4.05;;
49376;SDS011;35253;34.688;33.040;2023-07-24T06:32:41;11.60;;;3.25;;
49376;SDS011;35253;34.688;33.040;2023-07-24T06:35:07;11.30;;;3.83;;
49376;SDS011;35253;34.688;33.040;2023-07-24T06:37:33;15.90;;;4.85;;
49376;SDS011;35253;34.688;33.040;2023-07-24T06:39:59;27.40;;;5.78;;
49376;SDS011;35253;34.688;33.040;2023-07-24T06:42:24;13.13;;;3.67;;
49376;SDS011;35253;34.688;33.040;2023-07-24T06:44:50;17.00;;;4.28;;
49376;SDS011;35253;34.688;33.040;2023-07-24T06:47:16;16.60;;;4.72;;
49376;SDS011;35253;34.688;33.040;2023-07-24T06:49:41;27.70;;;4.75;;
49376;SDS011;35253;34.688;33.040;2023-07-24T06:52:07;11.43;;;4.53;;
49376;SDS011;35253;34.688;33.040;2023-07-24T06:54:33;18.33;;;4.38;;
49376;SDS011;35253;34.688;33.040;2023-07-24T06:56:58;14.90;;;3.83;;
49376;SDS011;35253;34.688;33.040;2023-07-24T06:59:24;10.50;;;4.07;;
49376;SDS011;35253;34.688;33.040;2023-07-24T07:01:49;9.70;;;4.43;;
49376;SDS011;35253;34.688;33.040;2023-07-24T07:04:15;10.55;;;4.00;;
49376;SDS011;35253;34.688;33.040;2023-07-24T07:06:41;7.05;;;3.20;;
49376;SDS011;35253;34.688;33.040;2023-07-24T07:09:07;14.00;;;3.92;;
49376;SDS011;35253;34.688;33.040;2023-07-24T07:11:33;8.77;;;3.83;;
49376;SDS011;35253;34.688;33.040;2023-07-24T07:13:58;8.98;;;4.60;;
49376;SDS011;35253;34.688;33.040;2023-07-24T07:16:24;12.18;;;3.60;;
49376;SDS011;35253;34.688;33.040;2023-07-24T07:18:49;9.77;;;3.42;;
49376;SDS011;35253;34.688;33.040;2023-07-24T07:21:15;22.52;;;5.03;;
49376;SDS011;35253;34.688;33.040;2023-07-24T07:23:41;24.48;;;6.25;;
49376;SDS011;35253;34.688;33.040;2023-07-24T07:26:06;44.22;;;6.43;;
49376;SDS011;35253;34.688;33.040;2023-07-24T07:28:32;19.73;;;4.82;;
49376;SDS011;35253;34.688;33.040;2023-07-24T07:30:57;11.77;;;3.80;;
49376;SDS011;35253;34.688;33.040;2023-07-24T07:33:23;15.90;;;4.28;;
49376;SDS011;35253;34.688;33.040;2023-07-24T07:35:49;11.38;;;4.68;;
49376;SDS011;35253;34.688;33.040;2023-07-24T07:38:15;28.00;;;7.97;;
49376;SDS011;35253;34.688;33.040;2023-07-24T07:40:41;17.73;;;4.15;;
49376;SDS011;35253;34.688;33.040;2023-07-24T07:43:07;9.13;;;3.50;;
49376;SDS011;35253;34.688;33.040;2023-07-24T07:45:32;16.13;;;4.07;;
49376;SDS011;35253;34.688;33.040;2023-07-24T07:47:58;10.98;;;3.58;;
49376;SDS011;35253;34.688;33.040;2023-07-24T07:50:24;11.98;;;3.80;;
49376;SDS011;35253;34.688;33.040;2023-07-24T07:52:50;11.57;;;3.40;;
49376;SDS011;35253;34.688;33.040;2023-07-24T07:55:17;16.35;;;4.95;;
49376;SDS011;35253;34.688;33.040;2023-07-24T07:57:45;16.98;;;4.30;;
49376;SDS011;35253;34.688;33.040;2023-07-24T08:00:11;12.02;;;3.70;;
49376;SDS011;35253;34.688;33.040;2023-07-24T08:02:37;19.17;;;4.28;;
49376;SDS011;35253;34.688;33.040;2023-07-24T08:05:09;7.95;;;3.75;;
49376;SDS011;35253;34.688;33.040;2023-07-24T08:07:36;11.38;;;3.85;;
49376;SDS011;35253;34.688;33.040;2023-07-24T08:10:02;11.13;;;4.45;;
49376;SDS011;35253;34.688;33.040;2023-07-24T08:12:28;10.07;;;4.93;;
49376;SDS011;35253;34.688;33.040;2023-07-24T08:14:54;11.43;;;4.32;;
49376;SDS011;35253;34.688;33.040;2023-07-24T08:17:20;13.73;;;3.97;;
49376;SDS011;35253;34.688;33.040;2023-07-24T08:19:46;12.60;;;4.28;;
49376;SDS011;35253;34.688;33.040;2023-07-24T08:22:11;10.95;;;4.55;;
49376;SDS011;35253;34.688;33.040;2023-07-24T08:24:37;10.85;;;3.70;;
49376;SDS011;35253;34.688;33.040;2023-07-24T08:27:03;11.40;;;5.45;;
49376;SDS011;35253;34.688;33.040;2023-07-24T08:29:29;12.02;;;4.55;;
49376;SDS011;35253;34.688;33.040;2023-07-24T08:31:54;10.60;;;4.25;;
49376;SDS011;35253;34.688;33.040;2023-07-24T08:34:21;13.05;;;5.22;;
49376;SDS011;35253;34.688;33.040;2023-07-24T08:36:46;10.88;;;5.25;;
49376;SDS011;35253;34.688;33.040;2023-07-24T08:39:12;12.73;;;3.55;;
49376;SDS011;35253;34.688;33.040;2023-07-24T08:41:37;10.85;;;3.63;;
49376;SDS011;35253;34.688;33.040;2023-07-24T08:44:12;15.57;;;4.05;;
49376;SDS011;35253;34.688;33.040;2023-07-24T08:46:38;8.73;;;3.05;;
49376;SDS011;35253;34.688;33.040;2023-07-24T08:49:06;8.15;;;3.58;;
49376;SDS011;35253;34.688;33.040;2023-07-24T08:51:37;17.73;;;3.85;;
49376;SDS011;35253;34.688;33.040;2023-07-24T08:54:03;18.27;;;4.43;;
49376;SDS011;35253;34.688;33.040;2023-07-24T08:56:30;24.33;;;4.38;;
49376;SDS011;35253;34.688;33.040;2023-07-24T08:58:56;18.88;;;5.90;;
49376;SDS011;35253;34.688;33.040;2023-07-24T09:01:22;9.52;;;4.53;;
49376;SDS011;35253;34.688;33.040;2023-07-24T09:03:47;29.60;;;6.10;;
49376;SDS011;35253;34.688;33.040;2023-07-24T09:06:13;16.50;;;8.05;;
49376;SDS011;35253;34.688;33.040;2023-07-24T09:08:40;13.02;;;4.93;;
49376;SDS011;35253;34.688;33.040;2023-07-24T09:11:08;25.30;;;5.13;;
49376;SDS011;35253;34.688;33.040;2023-07-24T09:13:38;16.30;;;5.43;;
49376;SDS011;35253;34.688;33.040;2023-07-24T09:16:07;14.82;;;4.57;;
49376;SDS011;35253;34.688;33.040;2023-07-24T09:18:42;13.35;;;5.20;;
49376;SDS011;35253;34.688;33.040;2023-07-24T09:21:09;13.30;;;3.92;;
49376;SDS011;35253;34.688;33.040;2023-07-24T09:23:37;14.55;;;5.90;;
49376;SDS011;35253;34.688;33.040;2023-07-24T09:26:06;13.27;;;4.00;;
49376;SDS011;35253;34.688;33.040;2023-07-24T09:28:33;16.73;;;5.85;;
49376;SDS011;35253;34.688;33.040;2023-07-24T09:30:59;10.93;;;3.88;;
49376;SDS011;35253;34.688;33.040;2023-07-24T09:36:01;13.98;;;4.45;;
49376;SDS011;35253;34.688;33.040;2023-07-24T09:38:28;13.65;;;4.72;;
49376;SDS011;35253;34.688;33.040;2023-07-24T09:40:55;16.55;;;5.45;;
49376;SDS011;35253;34.688;33.040;2023-07-24T09:43:25;12.45;;;4.60;;
49376;SDS011;35253;34.688;33.040;2023-07-24T09:45:53;14.52;;;5.28;;
49376;SDS011;35253;34.688;33.040;2023-07-24T09:48:19;13.13;;;4.78;;
49376;SDS011;35253;34.688;33.040;2023-07-24T09:50:48;13.95;;;4.50;;
49376;SDS011;35253;34.688;33.040;2023-07-24T09:53:20;11.30;;;3.83;;
49376;SDS011;35253;34.688;33.040;2023-07-24T09:55:51;18.73;;;4.90;;
49376;SDS011;35253;34.688;33.040;2023-07-24T09:58:23;12.23;;;5.30;;
49376;SDS011;35253;34.688;33.040;2023-07-24T10:00:51;13.57;;;3.72;;
49376;SDS011;35253;34.688;33.040;2023-07-24T10:03:17;9.02;;;3.63;;
49376;SDS011;35253;34.688;33.040;2023-07-24T10:05:45;21.00;;;4.88;;
49376;SDS011;35253;34.688;33.040;2023-07-24T10:08:11;12.45;;;5.43;;
49376;SDS011;35253;34.688;33.040;2023-07-24T10:10:40;17.90;;;5.28;;
49376;SDS011;35253;34.688;33.040;2023-07-24T10:13:06;12.02;;;5.15;;
49376;SDS011;35253;34.688;33.040;2023-07-24T10:18:03;19.80;;;5.47;;
49376;SDS011;35253;34.688;33.040;2023-07-24T10:20:36;55.45;;;9.40;;
49376;SDS011;35253;34.688;33.040;2023-07-24T10:23:04;16.95;;;7.82;;
49376;SDS011;35253;34.688;33.040;2023-07-24T10:25:32;24.35;;;5.88;;
49376;SDS011;35253;34.688;33.040;2023-07-24T10:28:01;12.87;;;4.20;;
49376;SDS011;35253;34.688;33.040;2023-07-24T10:30:35;11.13;;;4.53;;
49376;SDS011;35253;34.688;33.040;2023-07-24T10:35:45;10.95;;;4.85;;
49376;SDS011;35253;34.688;33.040;2023-07-24T10:38:12;13.93;;;4.50;;
49376;SDS011;35253;34.688;33.040;2023-07-24T10:40:40;16.45;;;5.07;;
49376;SDS011;35253;34.688;33.040;2023-07-24T10:43:08;21.42;;;6.38;;
49376;SDS011;35253;34.688;33.040;2023-07-24T10:45:39;17.00;;;6.70;;
49376;SDS011;35253;34.688;33.040;2023-07-24T10:48:13;29.48;;;7.40;;
49376;SDS011;35253;34.688;33.040;2023-07-24T10:50:39;17.85;;;6.35;;
49376;SDS011;35253;34.688;33.040;2023-07-24T10:53:08;13.55;;;4.88;;
49376;SDS011;35253;34.688;33.040;2023-07-24T10:55:34;19.38;;;11.43;;
49376;SDS011;35253;34.688;33.040;2023-07-24T10:58:00;13.90;;;5.63;;
49376;SDS011;35253;34.688;33.040;2023-07-24T11:00:26;15.02;;;5.05;;
49376;SDS011;35253;34.688;33.040;2023-07-24T11:02:55;19.13;;;5.07;;
49376;SDS011;35253;34.688;33.040;2023-07-24T11:05:24;13.80;;;4.90;;
49376;SDS011;35253;34.688;33.040;2023-07-24T11:07:50;15.05;;;4.95;;
49376;SDS011;35253;34.688;33.040;2023-07-24T11:10:20;15.32;;;5.53;;
49376;SDS011;35253;34.688;33.040;2023-07-24T11:12:46;24.00;;;5.50;;
49376;SDS011;35253;34.688;33.040;2023-07-24T11:15:13;21.83;;;7.07;;
49376;SDS011;35253;34.688;33.040;2023-07-24T11:17:40;19.58;;;3.92;;
49376;SDS011;35253;34.688;33.040;2023-07-24T11:20:07;10.30;;;4.50;;
49376;SDS011;35253;34.688;33.040;2023-07-24T11:22:43;10.38;;;4.88;;
49376;SDS011;35253;34.688;33.040;2023-07-24T11:25:09;11.60;;;4.57;;
49376;SDS011;35253;34.688;33.040;2023-07-24T11:27:43;9.27;;;4.03;;
49376;SDS011;35253;34.688;33.040;2023-07-24T11:30:12;10.95;;;4.30;;
49376;SDS011;35253;34.688;33.040;2023-07-24T11:32:44;12.77;;;4.90;;
49376;SDS011;35253;34.688;33.040;2023-07-24T11:35:11;13.90;;;4.25;;
49376;SDS011;35253;34.688;33.040;2023-07-24T11:37:37;11.10;;;5.45;;
49376;SDS011;35253;34.688;33.040;2023-07-24T11:40:03;12.13;;;4.32;;
49376;SDS011;35253;34.688;33.040;2023-07-24T11:42:38;13.52;;;4.53;;
49376;SDS011;35253;34.688;33.040;2023-07-24T11:45:04;11.55;;;4.03;;
49376;SDS011;35253;34.688;33.040;2023-07-24T11:47:31;12.05;;;4.35;;
49376;SDS011;35253;34.688;33.040;2023-07-24T11:49:57;14.80;;;4.28;;
49376;SDS011;35253;34.688;33.040;2023-07-24T11:52:36;10.75;;;4.15;;
49376;SDS011;35253;34.688;33.040;2023-07-24T11:55:08;13.38;;;4.38;;
49376;SDS011;35253;34.688;33.040;2023-07-24T11:57:34;15.88;;;5.03;;
49376;SDS011;35253;34.688;33.040;2023-07-24T12:00:00;24.45;;;5.78;;
49376;SDS011;35253;34.688;33.040;2023-07-24T12:02:27;9.98;;;4.78;;
49376;SDS011;35253;34.688;33.040;2023-07-24T12:04:53;14.27;;;6.70;;
49376;SDS011;35253;34.688;33.040;2023-07-24T12:07:22;13.25;;;4.63;;
49376;SDS011;35253;34.688;33.040;2023-07-24T12:09:53;13.18;;;4.28;;
49376;SDS011;35253;34.688;33.040;2023-07-24T12:12:19;15.25;;;4.22;;
49376;SDS011;35253;34.688;33.040;2023-07-24T12:14:45;17.27;;;4.80;;
49376;SDS011;35253;34.688;33.040;2023-07-24T12:17:11;6.60;;;3.78;;
49376;SDS011;35253;34.688;33.040;2023-07-24T12:19:39;18.03;;;5.17;;
49376;SDS011;35253;34.688;33.040;2023-07-24T12:22:05;25.60;;;4.72;;
49376;SDS011;35253;34.688;33.040;2023-07-24T12:24:30;12.50;;;3.88;;
49376;SDS011;35253;34.688;33.040;2023-07-24T12:26:56;11.55;;;3.92;;
49376;SDS011;35253;34.688;33.040;2023-07-24T12:29:21;10.93;;;4.60;;
49376;SDS011;35253;34.688;33.040;2023-07-24T12:31:47;16.27;;;4.75;;
49376;SDS011;35253;34.688;33.040;2023-07-24T12:34:13;7.28;;;3.90;;
49376;SDS011;35253;34.688;33.040;2023-07-24T12:36:38;14.73;;;4.63;;
49376;SDS011;35253;34.688;33.040;2023-07-24T12:39:04;14.75;;;6.50;;
49376;SDS011;35253;34.688;33.040;2023-07-24T12:41:29;8.77;;;3.83;;
49376;SDS011;35253;34.688;33.040;2023-07-24T12:43:55;10.00;;;4.63;;
49376;SDS011;35253;34.688;33.040;2023-07-24T12:46:21;27.00;;;5.55;;
49376;SDS011;35253;34.688;33.040;2023-07-24T12:48:46;34.95;;;5.68;;
49376;SDS011;35253;34.688;33.040;2023-07-24T12:51:12;14.20;;;4.95;;
49376;SDS011;35253;34.688;33.040;2023-07-24T12:53:37;15.57;;;4.75;;
49376;SDS011;35253;34.688;33.040;2023-07-24T12:56:03;8.18;;;4.85;;
49376;SDS011;35253;34.688;33.040;2023-07-24T12:58:29;7.85;;;3.90;;
49376;SDS011;35253;34.688;33.040;2023-07-24T13:00:54;13.60;;;4.55;;
49376;SDS011;35253;34.688;33.040;2023-07-24T13:03:20;10.80;;;3.67;;
49376;SDS011;35253;34.688;33.040;2023-07-24T13:05:46;9.32;;;3.60;;
49376;SDS011;35253;34.688;33.040;2023-07-24T13:08:12;21.05;;;8.35;;
49376;SDS011;35253;34.688;33.040;2023-07-24T13:10:38;10.20;;;4.20;;
49376;SDS011;35253;34.688;33.040;2023-07-24T13:13:03;9.68;;;5.15;;
49376;SDS011;35253;34.688;33.040;2023-07-24T13:15:29;12.20;;;4.93;;
49376;SDS011;35253;34.688;33.040;2023-07-24T13:17:57;12.93;;;4.07;;
49376;SDS011;35253;34.688;33.040;2023-07-24T13:20:24;17.25;;;4.07;;
49376;SDS011;35253;34.688;33.040;2023-07-24T13:22:50;12.35;;;6.53;;
49376;SDS011;35253;34.688;33.040;2023-07-24T13:25:15;17.10;;;5.20;;
49376;SDS011;35253;34.688;33.040;2023-07-24T13:27:41;13.55;;;3.33;;
49376;SDS011;35253;34.688;33.040;2023-07-24T13:30:07;10.80;;;4.40;;
49376;SDS011;35253;34.688;33.040;2023-07-24T13:32:33;10.18;;;4.68;;
49376;SDS011;35253;34.688;33.040;2023-07-24T13:34:58;17.20;;;5.53;;
49376;SDS011;35253;34.688;33.040;2023-07-24T13:37:25;14.38;;;3.63;;
49376;SDS011;35253;34.688;33.040;2023-07-24T13:39:51;9.02;;;4.20;;
49376;SDS011;35253;34.688;33.040;2023-07-24T13:42:16;13.35;;;5.75;;
49376;SDS011;35253;34.688;33.040;2023-07-24T13:44:42;11.43;;;4.75;;
49376;SDS011;35253;34.688;33.040;2023-07-24T13:47:08;15.52;;;4.35;;
49376;SDS011;35253;34.688;33.040;2023-07-24T13:49:33;14.60;;;3.90;;
49376;SDS011;35253;34.688;33.040;2023-07-24T13:51:59;9.73;;;3.10;;
49376;SDS011;35253;34.688;33.040;2023-07-24T13:54:25;13.25;;;4.00;;
49376;SDS011;35253;34.688;33.040;2023-07-24T13:56:50;16.35;;;3.58;;
49376;SDS011;35253;34.688;33.040;2023-07-24T13:59:16;15.55;;;4.22;;
49376;SDS011;35253;34.688;33.040;2023-07-24T14:01:41;11.68;;;3.05;;
49376;SDS011;35253;34.688;33.040;2023-07-24T14:04:07;16.13;;;4.15;;
49376;SDS011;35253;34.688;33.040;2023-07-24T14:06:33;10.95;;;4.45;;
49376;SDS011;35253;34.688;33.040;2023-07-24T14:08:58;11.70;;;4.18;;
49376;SDS011;35253;34.688;33.040;2023-07-24T14:11:24;12.20;;;4.63;;
49376;SDS011;35253;34.688;33.040;2023-07-24T14:13:51;9.35;;;3.10;;
49376;SDS011;35253;34.688;33.040;2023-07-24T14:16:17;12.65;;;5.68;;
49376;SDS011;35253;34.688;33.040;2023-07-24T14:18:43;10.98;;;4.50;;
49376;SDS011;35253;34.688;33.040;2023-07-24T14:21:08;13.20;;;4.45;;
49376;SDS011;35253;34.688;33.040;2023-07-24T14:23:35;16.35;;;4.28;;
49376;SDS011;35253;34.688;33.040;2023-07-24T14:26:00;7.95;;;3.58;;
49376;SDS011;35253;34.688;33.040;2023-07-24T14:28:26;12.43;;;3.75;;
49376;SDS011;35253;34.688;33.040;2023-07-24T14:30:51;15.65;;;4.32;;